Clay, Missouri
Current Conditions -  °F | °C
As of 12:54 AM on Thursday 27 Nov 2014 (Local Time) from KUIN Reporting Station
Haze Haze  
Wind Chill: 18°   Ceiling: 1200
Heat Index: 27°   Visibility: 5mi
Dew Point: 23°   Wind: 9mph
Humidity: 85%   Direction: 340°NNW
Pressure: 30.31"   Gusts: NA
Location:  39.7145°N, 91.4209°W
Report Text: KUIN 270654Z AUTO 34008KT 5SM BR OVC012 M03/M05 A3031 RMK AO2 SNE02 SLP272 P0000 T10281050
Loading
Personal Weather Stations






























Interactive Weather Map New forecast layout! Learn more

10-Day Weather Forecast

Advertisements
Track Severe Weather on mobile